Alexander Springs, Pennsylvania
Current Conditions -  °F | °C
As of 7:53 PM on Saturday 25 Oct 2014 (Local Time) from KUNV Reporting Station
Clear Clear  
Wind Chill: 59°   Ceiling: Unl
Heat Index: 59°   Visibility: 10mi
Dew Point: 48°   Wind: 12mph
Humidity: 67%   Direction: 230°SW
Pressure: 29.67"   Gusts: NA
Location:  40.5962°N, 77.7424°W
Report Text: KUNV 252353Z 23010KT 10SM SKC 15/09 A2967
Loading
Personal Weather Stations






























Interactive Weather Map
Tropical Storm Tracking
New forecast layout! Learn more

10-Day Weather Forecast

Advertisements
Track Severe Weather on mobile